Time;durP1;ratioP1;P1;durP2;ratioP2;P2;SDS_P1;SDS_P2;PMS_P1;PMS_P2;Temp;Humidity;BMP_temperature;BMP_pressure;BME280_temperature;BME280_humidity;BME280_pressure;Samples;Min_cycle;Max_cycle;Signal;HPM_P1;HPM_P2
2021/08/20 00:00:38;;;;;;;3.35;2.63;;;19.80;99.90;;;;;;5092348;28;20086;-72
2021/08/20 00:03:04;;;;;;;6.20;3.00;;;19.80;99.90;;;;;;5092756;28;20344;-72
2021/08/20 00:05:29;;;;;;;6.97;2.58;;;19.90;99.90;;;;;;5091096;28;20028;-73
2021/08/20 00:07:55;;;;;;;3.13;2.72;;;19.80;99.90;;;;;;5091587;28;20064;-72
2021/08/20 00:10:21;;;;;;;4.53;2.83;;;19.80;99.90;;;;;;5091155;28;20111;-71
2021/08/20 00:12:46;;;;;;;3.15;2.85;;;19.80;99.90;;;;;;5090812;28;20036;-71
2021/08/20 00:15:12;;;;;;;4.53;2.85;;;19.80;99.90;;;;;;5091202;28;20476;-71
2021/08/20 00:17:38;;;;;;;5.07;2.65;;;19.80;99.90;;;;;;5091995;28;20119;-71
2021/08/20 00:20:05;;;;;;;3.78;2.20;;;19.70;99.90;;;;;;5092286;28;20082;-71
2021/08/20 00:22:30;;;;;;;3.88;2.45;;;19.80;99.90;;;;;;5091837;28;20101;-71
2021/08/20 00:24:56;;;;;;;6.35;2.95;;;19.70;99.90;;;;;;5092294;28;20422;-71
2021/08/20 00:27:21;;;;;;;2.90;2.60;;;19.70;99.90;;;;;;5092339;28;20020;-71
2021/08/20 00:29:47;;;;;;;4.03;2.85;;;19.70;99.90;;;;;;5090364;28;20335;-72
2021/08/20 00:32:13;;;;;;;5.00;3.22;;;19.70;99.90;;;;;;5090835;28;20028;-72
2021/08/20 00:34:38;;;;;;;3.65;2.85;;;19.70;99.90;;;;;;5090341;28;20028;-71
2021/08/20 00:37:04;;;;;;;3.88;2.40;;;19.70;99.90;;;;;;5090807;28;20381;-72
2021/08/20 00:39:30;;;;;;;4.25;2.88;;;19.70;99.90;;;;;;5091686;28;20169;-72
2021/08/20 00:41:56;;;;;;;4.05;2.97;;;19.80;99.90;;;;;;5090569;28;20024;-71
2021/08/20 00:44:22;;;;;;;6.03;3.50;;;19.70;99.90;;;;;;5090993;28;20125;-72
2021/08/20 00:46:47;;;;;;;6.82;2.33;;;19.70;99.90;;;;;;5090167;28;20020;-71
2021/08/20 00:49:14;;;;;;;5.50;2.80;;;19.80;99.90;;;;;;5091900;28;20024;-71
2021/08/20 00:51:40;;;;;;;5.95;2.85;;;19.70;99.90;;;;;;5089950;28;20047;-70
2021/08/20 00:54:09;;;;;;;4.32;3.03;;;19.70;99.90;;;;;;5090398;28;20020;-70
2021/08/20 00:56:40;;;;;;;3.25;2.72;;;19.70;99.90;;;;;;5091107;28;20039;-70
2021/08/20 00:59:07;;;;;;;5.10;3.07;;;19.70;99.90;;;;;;5091134;28;20058;-71
2021/08/20 01:01:36;;;;;;;3.08;2.70;;;19.70;99.90;;;;;;5090801;28;20668;-71
2021/08/20 01:04:02;;;;;;;4.13;2.58;;;19.70;99.90;;;;;;5090113;28;20505;-71
2021/08/20 01:06:29;;;;;;;6.95;2.35;;;19.70;99.90;;;;;;5091454;28;20089;-70
2021/08/20 01:08:55;;;;;;;4.38;3.63;;;19.70;99.90;;;;;;5089795;28;20376;-71
2021/08/20 01:11:23;;;;;;;9.38;3.53;;;19.70;99.90;;;;;;5090126;28;20028;-71
2021/08/20 01:13:48;;;;;;;2.58;2.38;;;19.70;99.90;;;;;;5090869;28;20028;-70
2021/08/20 01:16:14;;;;;;;3.72;2.60;;;19.70;99.90;;;;;;5088751;28;20024;-70
2021/08/20 01:18:41;;;;;;;3.75;3.10;;;19.70;99.90;;;;;;5082922;28;20028;-71
2021/08/20 01:21:16;;;;;;;6.57;3.17;;;19.70;99.90;;;;;;5070368;28;20044;-71
2021/08/20 01:23:50;;;;;;;3.65;2.47;;;19.60;99.90;;;;;;5071480;28;20044;-71
2021/08/20 01:26:15;;;;;;;4.75;3.05;;;19.60;99.90;;;;;;5069501;28;20395;-71
2021/08/20 01:28:41;;;;;;;5.03;2.35;;;19.60;99.90;;;;;;5068817;28;20111;-71
2021/08/20 01:31:12;;;;;;;5.07;2.70;;;19.60;99.90;;;;;;5070931;28;20412;-71
2021/08/20 01:33:39;;;;;;;4.32;2.95;;;19.60;99.90;;;;;;5069089;28;20120;-71
2021/08/20 01:36:05;;;;;;;4.38;3.17;;;19.50;99.90;;;;;;5069922;28;20028;-71
2021/08/20 01:38:33;;;;;;;3.63;2.35;;;19.50;99.90;;;;;;5069989;28;20056;-71
2021/08/20 01:40:59;;;;;;;13.70;3.00;;;19.50;99.90;;;;;;5071144;28;20108;-71
2021/08/20 01:43:25;;;;;;;3.63;2.70;;;19.50;99.90;;;;;;5069734;28;20124;-71
2021/08/20 01:45:51;;;;;;;4.97;2.85;;;19.50;99.90;;;;;;5068939;28;20526;-71
2021/08/20 01:48:17;;;;;;;4.78;3.15;;;19.40;99.90;;;;;;5070986;28;20056;-71
2021/08/20 01:50:43;;;;;;;6.45;2.38;;;19.40;99.90;;;;;;5068460;28;20427;-70
2021/08/20 01:53:10;;;;;;;3.47;2.97;;;19.40;99.90;;;;;;5069220;28;20066;-70
2021/08/20 01:55:36;;;;;;;6.00;3.40;;;19.40;99.90;;;;;;5068565;28;20033;-71
2021/08/20 01:58:02;;;;;;;7.40;2.70;;;19.40;99.90;;;;;;5069145;28;20042;-70
2021/08/20 02:00:28;;;;;;;4.72;2.35;;;19.40;99.90;;;;;;5070567;28;20086;-70
2021/08/20 02:02:53;;;;;;;4.60;2.78;;;19.40;99.90;;;;;;5068631;28;20032;-71
2021/08/20 02:05:19;;;;;;;5.32;2.58;;;19.40;99.90;;;;;;5069387;28;20131;-71
2021/08/20 02:07:45;;;;;;;3.60;2.38;;;19.40;99.90;;;;;;5069998;28;20020;-71
2021/08/20 02:10:11;;;;;;;3.00;2.58;;;19.40;99.90;;;;;;5069397;28;20154;-71
2021/08/20 02:12:37;;;;;;;4.28;2.38;;;19.40;99.90;;;;;;5073642;28;20130;-70
2021/08/20 02:15:04;;;;;;;5.20;2.70;;;19.40;99.90;;;;;;5073101;28;20026;-70
2021/08/20 02:17:29;;;;;;;3.72;2.50;;;19.40;99.90;;;;;;5072887;28;20024;-71
2021/08/20 02:19:55;;;;;;;3.58;2.42;;;19.40;99.90;;;;;;5071948;28;20166;-71
2021/08/20 02:22:21;;;;;;;3.05;2.40;;;19.40;99.90;;;;;;5074252;28;20033;-70
2021/08/20 02:24:47;;;;;;;2.97;1.95;;;19.40;99.90;;;;;;5073696;28;20446;-71
2021/08/20 02:27:12;;;;;;;3.55;2.47;;;19.40;99.90;;;;;;5072828;28;20025;-70
2021/08/20 02:29:38;;;;;;;5.38;2.75;;;19.40;99.90;;;;;;5071847;28;20039;-71
2021/08/20 02:32:04;;;;;;;2.95;2.35;;;19.30;99.90;;;;;;5073912;28;20024;-71
2021/08/20 02:34:29;;;;;;;3.28;2.00;;;19.30;99.90;;;;;;5072693;28;20032;-71
2021/08/20 02:36:55;;;;;;;4.03;2.78;;;19.30;99.90;;;;;;5072466;28;20041;-71
2021/08/20 02:39:21;;;;;;;4.47;2.17;;;19.20;99.90;;;;;;5072906;28;20311;-71
2021/08/20 02:41:46;;;;;;;4.57;3.47;;;19.20;99.90;;;;;;5073513;28;20028;-70
2021/08/20 02:44:12;;;;;;;5.13;3.22;;;19.20;99.90;;;;;;5072596;28;20052;-70
2021/08/20 02:46:38;;;;;;;4.60;3.00;;;19.20;99.90;;;;;;5071844;28;20025;-70
2021/08/20 02:49:04;;;;;;;6.38;3.00;;;19.10;99.90;;;;;;5072559;28;20021;-71
2021/08/20 02:51:30;;;;;;;5.05;3.25;;;19.10;99.90;;;;;;5072102;28;20392;-71
2021/08/20 02:53:55;;;;;;;6.70;3.33;;;19.20;99.90;;;;;;5073006;28;20227;-71
2021/08/20 02:56:21;;;;;;;5.78;3.80;;;19.10;99.90;;;;;;5072356;28;20032;-71
2021/08/20 02:58:47;;;;;;;4.40;3.38;;;19.00;99.90;;;;;;5073063;28;20055;-71
2021/08/20 03:01:14;;;;;;;5.05;3.50;;;19.00;99.90;;;;;;5073253;28;20021;-71
2021/08/20 03:03:40;;;;;;;4.57;4.03;;;19.10;99.90;;;;;;5072704;28;20111;-71
2021/08/20 03:06:05;;;;;;;3.65;3.10;;;19.00;99.90;;;;;;5073352;28;20062;-70
2021/08/20 03:08:31;;;;;;;4.15;3.30;;;19.00;99.90;;;;;;5071952;28;20028;-71
2021/08/20 03:10:56;;;;;;;4.22;3.33;;;19.00;99.90;;;;;;5068367;28;20435;-71
2021/08/20 03:13:22;;;;;;;3.95;3.10;;;19.00;99.90;;;;;;5071633;28;20059;-72
2021/08/20 03:15:48;;;;;;;3.13;2.83;;;19.00;99.90;;;;;;5069818;28;20067;-71
2021/08/20 03:18:13;;;;;;;2.65;2.30;;;19.00;99.90;;;;;;5072246;28;20029;-71
2021/08/20 03:20:39;;;;;;;4.93;3.65;;;19.00;99.90;;;;;;5070212;28;20052;-71
2021/08/20 03:23:06;;;;;;;3.38;2.85;;;19.00;99.90;;;;;;5071674;28;20032;-71
2021/08/20 03:25:31;;;;;;;3.95;3.22;;;19.00;99.90;;;;;;5072832;28;20024;-70
2021/08/20 03:27:57;;;;;;;5.03;2.95;;;18.90;99.90;;;;;;5070697;28;20665;-70
2021/08/20 03:30:23;;;;;;;3.42;3.08;;;18.90;99.90;;;;;;5071367;28;20028;-70
2021/08/20 03:32:49;;;;;;;3.50;2.85;;;18.90;99.90;;;;;;5070957;28;20502;-70
2021/08/20 03:35:15;;;;;;;5.07;3.50;;;18.90;99.90;;;;;;5072978;28;20025;-70
2021/08/20 03:37:41;;;;;;;7.25;3.50;;;18.90;99.90;;;;;;5071001;28;20028;-71
2021/08/20 03:40:07;;;;;;;5.05;3.58;;;18.80;99.90;;;;;;5072779;28;20107;-71
2021/08/20 03:42:33;;;;;;;5.13;3.60;;;18.80;99.90;;;;;;5071411;28;20029;-72
2021/08/20 03:44:59;;;;;;;10.68;3.63;;;18.70;99.90;;;;;;5070890;28;20044;-72
2021/08/20 03:47:24;;;;;;;5.88;3.42;;;18.70;99.90;;;;;;5072813;28;20419;-71
2021/08/20 03:49:50;;;;;;;6.72;4.10;;;18.70;99.90;;;;;;5070307;28;20071;-72
2021/08/20 03:52:16;;;;;;;6.47;3.90;;;18.50;99.90;;;;;;5071379;28;20032;-71
2021/08/20 03:54:41;;;;;;;8.70;3.70;;;18.50;99.90;;;;;;5070412;28;20165;-71
2021/08/20 03:57:07;;;;;;;7.13;3.05;;;18.50;99.90;;;;;;5071494;28;20492;-71
2021/08/20 03:59:33;;;;;;;6.55;4.05;;;18.50;99.90;;;;;;5072060;28;20330;-72
2021/08/20 04:02:05;;;;;;;6.07;3.50;;;18.60;99.90;;;;;;5071579;28;20044;-74
2021/08/20 04:04:31;;;;;;;4.38;3.75;;;18.60;99.90;;;;;;5082313;28;20043;-72
2021/08/20 04:06:57;;;;;;;5.40;3.53;;;18.50;99.90;;;;;;5070242;28;20021;-71
2021/08/20 04:09:22;;;;;;;6.07;3.45;;;18.60;99.90;;;;;;5070908;28;20044;-72
2021/08/20 04:11:48;;;;;;;7.75;3.28;;;18.60;99.90;;;;;;5069792;28;20113;-71
2021/08/20 04:14:14;;;;;;;5.40;3.78;;;18.50;99.90;;;;;;5072194;28;20052;-71
2021/08/20 04:16:40;;;;;;;4.82;3.63;;;18.50;99.90;;;;;;5071619;28;20111;-71
2021/08/20 04:19:06;;;;;;;10.38;4.75;;;18.50;99.90;;;;;;5070541;28;20021;-72
2021/08/20 04:21:31;;;;;;;4.32;3.35;;;18.40;99.90;;;;;;5071725;28;20048;-73
2021/08/20 04:23:58;;;;;;;3.90;3.42;;;18.50;99.90;;;;;;5069827;28;20037;-72
2021/08/20 04:26:23;;;;;;;4.07;3.08;;;18.40;99.90;;;;;;5086314;28;20028;-74
2021/08/20 04:28:51;;;;;;;6.28;3.65;;;18.50;99.90;;;;;;5089113;28;20023;-73
2021/08/20 04:31:17;;;;;;;3.88;3.47;;;18.40;99.90;;;;;;5088179;28;20449;-74
2021/08/20 04:33:43;;;;;;;9.32;3.90;;;18.40;99.90;;;;;;5089362;28;20082;-75
2021/08/20 04:36:09;;;;;;;4.82;3.35;;;18.30;99.90;;;;;;5088616;28;20028;-73
2021/08/20 04:38:36;;;;;;;4.18;3.55;;;18.30;99.90;;;;;;5088494;28;20414;-73
2021/08/20 04:41:01;;;;;;;6.55;3.67;;;18.30;99.90;;;;;;5088351;28;20610;-72
2021/08/20 04:43:27;;;;;;;10.32;3.97;;;18.30;99.90;;;;;;5090639;28;20077;-64
2021/08/20 04:45:53;;;;;;;6.65;3.28;;;18.50;99.90;;;;;;5090730;28;20066;-62
2021/08/20 04:48:18;;;;;;;3.53;3.17;;;18.80;99.90;;;;;;5089894;28;20036;-65
2021/08/20 04:50:44;;;;;;;6.15;3.42;;;19.20;99.90;;;;;;5088413;28;20076;-67
2021/08/20 04:53:10;;;;;;;5.25;3.42;;;19.20;99.90;;;;;;5089509;28;20047;-64
2021/08/20 04:55:35;;;;;;;5.60;3.15;;;19.20;99.90;;;;;;5089983;28;20473;-63
2021/08/20 04:58:01;;;;;;;4.75;3.15;;;19.20;99.90;;;;;;5086581;28;20023;-63
2021/08/20 05:00:26;;;;;;;6.00;2.60;;;19.40;99.90;;;;;;5090413;28;20331;-62
2021/08/20 05:02:52;;;;;;;6.22;3.15;;;19.40;99.90;;;;;;5089013;28;20031;-63
2021/08/20 05:05:18;;;;;;;6.72;3.42;;;19.40;99.90;;;;;;5090136;28;20028;-64
2021/08/20 05:07:43;;;;;;;5.50;3.30;;;19.40;99.90;;;;;;5087554;28;20372;-67
2021/08/20 05:10:10;;;;;;;6.22;3.08;;;19.40;99.90;;;;;;5089612;28;20061;-64
2021/08/20 05:12:39;;;;;;;2.83;2.55;;;19.40;99.90;;;;;;5088645;28;20031;-65
2021/08/20 05:15:06;;;;;;;5.85;2.65;;;19.40;99.90;;;;;;5087927;28;20072;-63
2021/08/20 05:17:32;;;;;;;7.43;3.22;;;19.50;99.90;;;;;;5086858;28;20035;-63
2021/08/20 05:19:58;;;;;;;5.65;2.92;;;19.70;99.90;;;;;;5088146;28;20031;-62
2021/08/20 05:22:24;;;;;;;6.15;2.90;;;19.80;99.90;;;;;;5087934;28;20528;-63
2021/08/20 05:24:49;;;;;;;4.70;3.33;;;19.70;99.90;;;;;;5089500;28;20035;-63
2021/08/20 05:27:15;;;;;;;4.90;3.20;;;19.60;99.90;;;;;;5088154;28;20024;-63
2021/08/20 05:29:41;;;;;;;4.63;3.03;;;19.70;99.90;;;;;;5084817;28;20068;-63
2021/08/20 05:32:06;;;;;;;6.05;2.40;;;19.70;99.90;;;;;;5089165;28;20104;-64
2021/08/20 05:34:32;;;;;;;4.38;2.38;;;19.80;99.90;;;;;;5086992;28;20376;-62
2021/08/20 05:36:58;;;;;;;4.82;2.47;;;19.60;99.90;;;;;;5081619;28;20051;-64
2021/08/20 05:39:25;;;;;;;3.05;2.75;;;19.80;99.90;;;;;;5069571;28;20039;-63
2021/08/20 05:41:51;;;;;;;4.43;2.78;;;19.80;99.90;;;;;;5068274;28;20334;-63
2021/08/20 05:44:16;;;;;;;7.85;2.47;;;19.80;99.90;;;;;;5067894;28;20041;-63
2021/08/20 05:46:42;;;;;;;5.57;2.30;;;19.80;99.90;;;;;;5068753;28;20124;-65
2021/08/20 05:49:08;;;;;;;4.13;2.40;;;19.90;99.90;;;;;;5067140;28;20052;-64
2021/08/20 05:51:34;;;;;;;5.47;2.83;;;19.90;99.90;;;;;;5069012;28;20480;-63
2021/08/20 05:54:00;;;;;;;6.95;3.10;;;19.90;99.90;;;;;;5068537;28;20041;-66
2021/08/20 05:56:26;;;;;;;4.78;2.83;;;19.80;99.90;;;;;;5067109;28;20497;-64
2021/08/20 05:58:54;;;;;;;3.72;2.65;;;19.70;99.90;;;;;;5067044;28;20031;-63
2021/08/20 06:01:20;;;;;;;6.03;2.92;;;19.80;99.90;;;;;;5066393;28;20041;-73
2021/08/20 06:03:45;;;;;;;4.78;2.83;;;19.60;99.90;;;;;;5066904;28;20133;-78
2021/08/20 06:06:15;;;;;;;3.97;2.88;;;19.50;99.90;;;;;;5074699;28;20028;-75
2021/08/20 06:08:41;;;;;;;4.30;2.65;;;19.50;99.90;;;;;;5088179;28;20438;-76
2021/08/20 06:11:07;;;;;;;4.55;2.90;;;19.30;99.90;;;;;;5087261;28;20028;-72
2021/08/20 06:13:32;;;;;;;4.47;2.60;;;19.20;99.90;;;;;;5088093;28;20065;-73
2021/08/20 06:15:58;;;;;;;4.15;2.42;;;19.10;99.90;;;;;;5087056;28;20067;-72
2021/08/20 06:18:24;;;;;;;4.60;2.40;;;19.20;99.90;;;;;;5087788;28;20035;-72
2021/08/20 06:20:49;;;;;;;3.63;2.40;;;19.20;99.90;;;;;;5088386;28;20121;-72
2021/08/20 06:23:15;;;;;;;5.60;2.90;;;19.20;99.90;;;;;;5088383;28;20166;-72
2021/08/20 06:25:41;;;;;;;3.75;2.55;;;19.20;99.90;;;;;;5087963;28;20028;-73
2021/08/20 06:28:06;;;;;;;3.25;2.50;;;19.40;99.90;;;;;;5086430;28;20032;-74
2021/08/20 06:30:32;;;;;;;4.25;3.08;;;19.50;99.90;;;;;;5088472;28;20086;-73
2021/08/20 06:32:58;;;;;;;3.80;2.58;;;19.50;99.90;;;;;;5087537;28;20488;-71
2021/08/20 06:35:25;;;;;;;3.03;2.35;;;19.60;99.90;;;;;;5089400;28;20419;-74
2021/08/20 06:37:50;;;;;;;4.00;2.40;;;19.80;99.90;;;;;;5065612;28;20163;-73
2021/08/20 06:40:16;;;;;;;4.32;2.40;;;20.00;99.90;;;;;;5049429;28;20120;-72
2021/08/20 06:42:42;;;;;;;8.68;3.10;;;20.00;99.90;;;;;;5048995;28;20044;-73
2021/08/20 06:45:08;;;;;;;7.25;2.40;;;20.00;99.90;;;;;;5048650;28;20036;-73
2021/08/20 06:47:33;;;;;;;4.93;2.47;;;19.90;99.90;;;;;;5048687;28;20461;-73
2021/08/20 06:49:59;;;;;;;5.32;2.33;;;20.00;99.90;;;;;;5065653;28;20099;-73
2021/08/20 06:52:25;;;;;;;5.00;2.70;;;19.90;99.90;;;;;;5048478;28;20135;-73
2021/08/20 06:54:55;;;;;;;4.38;2.50;;;19.70;99.90;;;;;;5065243;28;20152;-74
2021/08/20 06:57:20;;;;;;;6.43;2.63;;;19.80;99.90;;;;;;5065569;28;20152;-74
2021/08/20 06:59:48;;;;;;;3.47;2.75;;;20.00;99.90;;;;;;5068647;28;20063;-79
2021/08/20 07:02:13;;;;;;;3.60;2.17;;;20.10;99.90;;;;;;5069423;28;20043;-73
2021/08/20 07:04:39;;;;;;;2.70;1.90;;;20.20;99.90;;;;;;5052712;28;20040;-72
2021/08/20 07:07:05;;;;;;;4.15;2.20;;;20.30;99.90;;;;;;5068468;28;20126;-72
2021/08/20 07:09:30;;;;;;;2.95;1.98;;;20.20;99.90;;;;;;5086859;28;20480;-72
2021/08/20 07:11:57;;;;;;;3.95;1.70;;;20.40;99.90;;;;;;5090061;28;20027;-72
2021/08/20 07:14:23;;;;;;;2.88;1.80;;;20.40;99.90;;;;;;5091831;28;20518;-74
2021/08/20 07:16:48;;;;;;;5.32;2.40;;;20.60;99.90;;;;;;5089874;28;20032;-74
2021/08/20 07:19:14;;;;;;;3.30;2.30;;;20.70;99.90;;;;;;5091607;28;20386;-73
2021/08/20 07:21:40;;;;;;;5.90;2.15;;;21.00;99.90;;;;;;5089668;28;20048;-73
2021/08/20 07:24:05;;;;;;;5.28;2.53;;;21.00;99.90;;;;;;5091709;28;20205;-74
2021/08/20 07:26:31;;;;;;;5.05;2.05;;;21.20;99.90;;;;;;5091592;28;20055;-73
2021/08/20 07:28:57;;;;;;;2.60;2.10;;;21.50;99.90;;;;;;5088894;28;20064;-73
2021/08/20 07:31:22;;;;;;;3.83;1.77;;;21.70;99.90;;;;;;5090219;28;20423;-75
2021/08/20 07:33:49;;;;;;;5.07;2.45;;;21.90;99.90;;;;;;5091100;28;20028;-74
2021/08/20 07:36:15;;;;;;;2.70;2.30;;;21.90;99.90;;;;;;5091816;28;20047;-75
2021/08/20 07:38:41;;;;;;;2.72;1.80;;;21.90;99.90;;;;;;5090009;28;20036;-75
2021/08/20 07:41:06;;;;;;;3.38;2.00;;;21.80;99.90;;;;;;5089474;28;20035;-74
2021/08/20 07:43:32;;;;;;;1.98;1.83;;;21.90;99.90;;;;;;5090518;28;20027;-76
2021/08/20 07:45:59;;;;;;;2.60;1.70;;;22.00;99.90;;;;;;5089632;28;20036;-74
2021/08/20 07:48:25;;;;;;;2.15;1.38;;;22.30;99.80;;;;;;5088739;28;20028;-74
2021/08/20 07:50:51;;;;;;;2.03;1.75;;;22.30;99.70;;;;;;5088308;28;20036;-73
2021/08/20 07:53:17;;;;;;;5.75;1.77;;;22.40;99.40;;;;;;5090766;28;20043;-73
2021/08/20 07:55:43;;;;;;;3.88;1.92;;;22.50;99.10;;;;;;5090756;28;20036;-75
2021/08/20 07:58:09;;;;;;;2.85;2.20;;;22.10;99.30;;;;;;5089569;28;20028;-75
2021/08/20 08:00:35;;;;;;;3.15;1.80;;;22.20;99.80;;;;;;5091095;28;20360;-75
2021/08/20 08:03:01;;;;;;;2.65;1.50;;;22.40;99.10;;;;;;5090553;28;20028;-75
2021/08/20 08:05:27;;;;;;;5.47;1.98;;;22.50;98.90;;;;;;5089870;28;20107;-75
2021/08/20 08:07:55;;;;;;;3.92;2.00;;;22.40;98.90;;;;;;5089328;28;20078;-75
2021/08/20 08:10:21;;;;;;;2.70;2.10;;;22.50;99.20;;;;;;5090765;28;20027;-73
2021/08/20 08:12:48;;;;;;;2.92;1.70;;;22.20;98.80;;;;;;5090641;28;20479;-73
2021/08/20 08:15:14;;;;;;;2.60;1.67;;;21.90;99.20;;;;;;5091270;28;20028;-75
2021/08/20 08:17:40;;;;;;;2.80;1.70;;;22.00;99.50;;;;;;5089211;28;20471;-73
2021/08/20 08:20:09;;;;;;;7.43;1.50;;;22.20;98.90;;;;;;5088660;28;20134;-73
2021/08/20 08:22:34;;;;;;;3.50;1.60;;;22.40;98.90;;;;;;5089154;28;20036;-75
2021/08/20 08:25:00;;;;;;;2.28;1.30;;;22.40;98.10;;;;;;5089493;28;20028;-75
2021/08/20 08:27:26;;;;;;;2.05;1.42;;;22.80;97.60;;;;;;5090930;28;20020;-76
2021/08/20 08:29:52;;;;;;;2.25;1.33;;;22.50;97.10;;;;;;5087858;28;20028;-75
2021/08/20 08:32:18;;;;;;;1.65;1.30;;;22.30;97.60;;;;;;5090217;28;20539;-78
2021/08/20 08:34:43;;;;;;;7.22;1.63;;;22.70;97.50;;;;;;5088496;28;20140;-75
2021/08/20 08:37:09;;;;;;;5.47;1.60;;;23.10;96.40;;;;;;5088023;28;20024;-76
2021/08/20 08:39:35;;;;;;;3.80;1.65;;;23.20;96.00;;;;;;5090371;28;20032;-76
2021/08/20 08:42:01;;;;;;;4.00;1.77;;;23.40;95.90;;;;;;5088179;28;20533;-76
2021/08/20 08:44:27;;;;;;;2.47;1.48;;;23.60;96.10;;;;;;5089432;28;20059;-74
2021/08/20 08:46:54;;;;;;;2.42;1.27;;;24.20;95.80;;;;;;5089430;28;20024;-77
2021/08/20 08:49:22;;;;;;;1.95;1.30;;;24.50;95.20;;;;;;5090427;28;20047;-77
2021/08/20 08:51:49;;;;;;;2.10;1.50;;;24.10;95.90;;;;;;5089396;28;20092;-73
2021/08/20 08:54:15;;;;;;;3.95;1.50;;;24.30;94.80;;;;;;5088862;28;20436;-76
2021/08/20 08:56:46;;;;;;;2.95;1.70;;;24.30;95.40;;;;;;5087482;28;20035;-77
2021/08/20 08:59:12;;;;;;;7.07;1.45;;;24.40;95.40;;;;;;5090110;28;20055;-77
2021/08/20 09:01:38;;;;;;;4.28;1.42;;;24.80;94.00;;;;;;5088672;28;20085;-76
2021/08/20 09:04:08;;;;;;;1.45;1.20;;;24.50;94.30;;;;;;5087266;28;20771;-77
2021/08/20 09:06:57;;;;;;;1.88;1.10;;;24.40;94.70;;;;;;5089220;28;20039;-48
2021/08/20 09:09:24;;;;;;;1.95;1.10;;;24.30;95.70;;;;;;5078349;28;20346;-51
2021/08/20 09:11:51;;;;;;;3.03;1.33;;;24.50;95.90;;;;;;5086850;28;20054;-49
2021/08/20 09:14:17;;;;;;;5.10;2.25;;;24.50;95.20;;;;;;5089605;28;20152;-50
2021/08/20 09:16:46;;;;;;;4.43;1.95;;;24.30;95.30;;;;;;5089447;28;20020;-50
2021/08/20 09:19:14;;;;;;;2.85;1.55;;;24.80;95.20;;;;;;5089089;28;20058;-50
2021/08/20 09:21:41;;;;;;;6.00;1.30;;;24.80;95.00;;;;;;5088396;28;20052;-50
2021/08/20 09:24:37;;;;;;;1.25;1.15;;;24.90;94.80;;;;;;5091000;28;20472;-50
2021/08/20 09:27:15;;;;;;;1.40;0.98;;;25.30;94.70;;;;;;5083081;28;20137;-47
2021/08/20 09:30:07;;;;;;;2.05;1.20;;;24.90;93.70;;;;;;5090606;28;20020;-49
2021/08/20 09:32:41;;;;;;;2.95;1.63;;;25.10;94.50;;;;;;5090544;28;20031;-49
2021/08/20 09:35:07;;;;;;;4.45;1.27;;;25.00;94.00;;;;;;5089865;28;20493;-48
2021/08/20 09:37:33;;;;;;;1.60;0.95;;;25.30;93.60;;;;;;5090960;28;20028;-48
2021/08/20 09:40:07;;;;;;;3.55;1.20;;;25.80;93.60;;;;;;5090572;28;20083;-49
2021/08/20 09:42:34;;;;;;;4.45;1.88;;;26.00;92.40;;;;;;5090835;28;20039;-48
2021/08/20 09:45:17;;;;;;;1.70;1.00;;;25.70;92.50;;;;;;5088699;28;20040;-48
2021/08/20 09:47:48;;;;;;;2.75;1.65;;;25.60;91.50;;;;;;5090684;28;20040;-48
2021/08/20 09:50:14;;;;;;;1.75;1.35;;;25.50;91.30;;;;;;5090774;28;20036;-48
2021/08/20 09:52:40;;;;;;;3.15;1.42;;;25.20;91.70;;;;;;5090165;28;20036;-49
2021/08/20 09:55:06;;;;;;;2.90;1.30;;;25.20;91.70;;;;;;5089626;28;20092;-49
2021/08/20 09:57:35;;;;;;;1.08;0.80;;;25.30;92.20;;;;;;5090090;28;20052;-49
2021/08/20 10:00:01;;;;;;;2.20;1.48;;;25.80;91.90;;;;;;5089908;28;20415;-49
2021/08/20 10:02:28;;;;;;;3.20;1.13;;;26.20;91.60;;;;;;5090000;28;20439;-49
2021/08/20 10:04:58;;;;;;;2.65;1.70;;;26.10;91.50;;;;;;5089160;28;20059;-49
2021/08/20 10:07:26;;;;;;;5.70;1.33;;;26.10;91.50;;;;;;5090129;28;20083;-49
2021/08/20 10:09:53;;;;;;;2.97;1.50;;;26.70;91.70;;;;;;5089100;28;20110;-50
2021/08/20 10:12:21;;;;;;;4.07;1.33;;;27.40;90.50;;;;;;5090007;28;20056;-48
2021/08/20 10:14:47;;;;;;;3.15;1.30;;;27.80;90.20;;;;;;5089813;28;20032;-49
2021/08/20 10:17:14;;;;;;;1.75;1.10;;;28.10;89.50;;;;;;5089619;28;20020;-49
2021/08/20 10:19:44;;;;;;;3.22;1.40;;;28.40;89.70;;;;;;5089953;28;20024;-49
2021/08/20 10:22:10;;;;;;;2.13;1.30;;;28.40;88.50;;;;;;5089231;28;20096;-48
2021/08/20 10:24:37;;;;;;;2.03;1.17;;;28.40;87.80;;;;;;5088522;28;20319;-49
2021/08/20 10:27:06;;;;;;;1.88;1.00;;;28.70;86.30;;;;;;5089377;28;20075;-49
2021/08/20 10:29:36;;;;;;;3.92;1.20;;;29.00;87.60;;;;;;5088662;28;20093;-50
2021/08/20 10:32:05;;;;;;;5.55;1.75;;;29.10;82.80;;;;;;5090412;28;20053;-49
2021/08/20 10:34:31;;;;;;;2.00;1.05;;;28.80;86.70;;;;;;5092639;28;20040;-49
2021/08/20 10:37:08;;;;;;;3.17;1.35;;;28.90;83.90;;;;;;5091895;28;20385;-49
2021/08/20 10:39:34;;;;;;;2.63;1.63;;;28.80;83.60;;;;;;5093507;28;20028;-50
2021/08/20 10:42:13;;;;;;;2.50;1.60;;;28.10;83.80;;;;;;5092957;28;20016;-50
2021/08/20 10:44:44;;;;;;;2.78;1.30;;;27.60;84.80;;;;;;5093443;28;20123;-49
2021/08/20 10:47:22;;;;;;;1.20;0.95;;;27.40;86.30;;;;;;5092911;28;20231;-49
2021/08/20 10:49:49;;;;;;;4.85;1.63;;;27.60;86.90;;;;;;5091749;28;20119;-48
2021/08/20 10:52:30;;;;;;;5.13;2.25;;;27.30;84.90;;;;;;5093502;28;20032;-49
2021/08/20 10:54:55;;;;;;;3.30;1.58;;;27.10;85.20;;;;;;5092387;28;20035;-49
2021/08/20 10:57:38;;;;;;;3.45;2.03;;;27.30;84.90;;;;;;5091578;28;20028;-48
2021/08/20 11:00:08;;;;;;;3.22;2.05;;;27.30;84.70;;;;;;5090997;28;20066;-49
2021/08/20 11:02:41;;;;;;;2.58;2.13;;;27.00;85.90;;;;;;5092741;28;20138;-49
2021/08/20 11:05:12;;;;;;;1.58;1.25;;;27.10;86.70;;;;;;5092786;28;20032;-47
2021/08/20 11:07:43;;;;;;;1.75;1.42;;;27.40;87.40;;;;;;5092426;28;20020;-48
2021/08/20 11:10:12;;;;;;;3.20;1.63;;;27.40;86.10;;;;;;5092204;28;20071;-49
2021/08/20 11:12:53;;;;;;;3.65;1.88;;;27.40;87.40;;;;;;5092318;28;20042;-48
2021/08/20 11:15:25;;;;;;;5.00;1.65;;;27.50;84.90;;;;;;5092782;28;20062;-49
2021/08/20 11:18:05;;;;;;;2.72;1.60;;;27.30;85.60;;;;;;5093002;28;20092;-48
2021/08/20 11:20:47;;;;;;;1.83;1.50;;;26.80;84.50;;;;;;5090916;28;20060;-48
2021/08/20 11:23:13;;;;;;;1.52;1.40;;;26.90;85.50;;;;;;5091804;28;20036;-48
2021/08/20 11:25:45;;;;;;;3.92;1.50;;;27.20;83.70;;;;;;5092504;28;20055;-48
2021/08/20 11:28:29;;;;;;;3.22;2.10;;;27.30;84.80;;;;;;5090708;28;20410;-49
2021/08/20 11:31:06;;;;;;;3.05;1.88;;;27.80;84.50;;;;;;5091139;28;20024;-48
2021/08/20 11:33:40;;;;;;;1.52;1.40;;;27.60;81.60;;;;;;5090745;28;20134;-48
2021/08/20 11:36:13;;;;;;;5.25;1.77;;;27.30;82.20;;;;;;5091985;28;20040;-49
2021/08/20 11:38:43;;;;;;;4.22;1.33;;;27.10;82.50;;;;;;5074677;28;20375;-48
2021/08/20 11:41:13;;;;;;;1.95;1.50;;;27.40;82.80;;;;;;5091986;28;20345;-48
2021/08/20 11:43:55;;;;;;;2.33;1.17;;;27.70;83.60;;;;;;5091951;28;20384;-51
2021/08/20 11:46:24;;;;;;;4.03;1.58;;;27.60;82.20;;;;;;5092301;28;20028;-51
2021/08/20 11:48:53;;;;;;;1.88;1.70;;;27.30;82.70;;;;;;5092647;28;20020;-49
2021/08/20 11:51:33;;;;;;;2.70;1.50;;;27.00;83.40;;;;;;5092354;28;20032;-48
2021/08/20 11:54:01;;;;;;;6.00;1.77;;;26.80;83.60;;;;;;5090272;28;20345;-49
2021/08/20 11:56:26;;;;;;;4.07;1.80;;;26.80;83.30;;;;;;5092246;28;20020;-49
2021/08/20 11:58:53;;;;;;;1.83;1.70;;;27.30;83.00;;;;;;5090979;28;20099;-48
2021/08/20 12:01:18;;;;;;;3.10;1.85;;;27.10;82.90;;;;;;5091945;28;20031;-49
2021/08/20 12:03:56;;;;;;;2.20;2.00;;;27.00;83.90;;;;;;5091653;28;20036;-49
2021/08/20 12:06:22;;;;;;;2.92;1.67;;;27.10;83.70;;;;;;5092193;28;20117;-56
2021/08/20 12:08:48;;;;;;;1.70;1.60;;;27.20;84.10;;;;;;5090554;28;20146;-49
2021/08/20 12:11:20;;;;;;;1.95;1.67;;;27.30;84.20;;;;;;5091466;28;20063;-50
2021/08/20 12:13:52;;;;;;;7.43;2.88;;;27.10;84.80;;;;;;5092010;28;20043;-49
2021/08/20 12:16:42;;;;;;;2.47;1.30;;;27.20;83.40;;;;;;5091049;28;20110;-49
2021/08/20 12:19:19;;;;;;;1.92;1.77;;;26.70;83.50;;;;;;5091561;28;20031;-49
2021/08/20 12:22:03;;;;;;;2.95;2.35;;;26.70;84.60;;;;;;5091819;28;20362;-48
2021/08/20 12:24:34;;;;;;;3.35;2.25;;;26.90;84.00;;;;;;5091265;28;20044;-49
2021/08/20 12:27:13;;;;;;;2.92;1.83;;;26.80;84.90;;;;;;5091099;28;20476;-50
2021/08/20 12:29:39;;;;;;;3.30;1.30;;;26.70;84.10;;;;;;5091799;28;20065;-48
2021/08/20 12:32:05;;;;;;;2.35;1.60;;;26.70;83.90;;;;;;5089582;28;20044;-49
2021/08/20 12:34:33;;;;;;;4.30;1.42;;;26.60;83.20;;;;;;5091844;28;20060;-48
2021/08/20 12:37:04;;;;;;;2.67;1.80;;;26.40;83.30;;;;;;5091102;28;20027;-49
2021/08/20 12:39:34;;;;;;;;;;;26.30;84.90;;;;;;5092403;28;20328;-50
2021/08/20 12:42:19;;;;;;;3.28;1.60;;;26.40;85.50;;;;;;5091304;28;19907;-48
2021/08/20 12:44:47;;;;;;;2.47;2.25;;;26.40;85.10;;;;;;5090003;28;20036;-49
2021/08/20 12:47:13;;;;;;;1.83;1.65;;;26.50;87.80;;;;;;5090343;28;20472;-49
2021/08/20 12:49:58;;;;;;;3.38;1.58;;;26.60;86.60;;;;;;5091102;28;20060;-48